Paterson, Washington
Current Conditions -  °F | °C
As of 12:53 AM on Monday 24 Nov 2014 (Local Time) from KHRI Reporting Station
Clear Clear  
Wind Chill: 42°   Ceiling: Unl
Heat Index: 44°   Visibility: 10mi
Dew Point: 37°   Wind: 5mph
Humidity: 76%   Direction: 250°WSW
Pressure: 30.32"   Gusts: NA
Location:  45.94°N, 119.6°W
Report Text: KHRI 240853Z AUTO 25004KT 10SM CLR 07/03 A3032 RMK AO2 SLP266 T00670028 53022
Loading
Personal Weather Stations






























Interactive Weather Map New forecast layout! Learn more

10-Day Weather Forecast

Advertisements
Track Severe Weather on mobile